createdAt,value
2023-05-11T00:00:24.864Z,21.20
2023-05-11T00:02:53.030Z,21.20
2023-05-11T00:05:21.098Z,21.20
2023-05-11T00:07:49.001Z,21.20
2023-05-11T00:10:18.340Z,21.20
2023-05-11T00:12:46.424Z,21.20
2023-05-11T00:15:14.303Z,21.20
2023-05-11T00:17:42.367Z,21.20
2023-05-11T00:20:11.405Z,21.10
2023-05-11T00:22:39.566Z,21.20
2023-05-11T00:25:08.709Z,21.10
2023-05-11T00:27:37.945Z,21.10
2023-05-11T00:30:08.739Z,21.10
2023-05-11T00:32:36.870Z,21.10
2023-05-11T00:35:05.464Z,21.10
2023-05-11T00:37:33.328Z,21.10
2023-05-11T00:40:01.212Z,21.10
2023-05-11T00:42:29.169Z,21.10
2023-05-11T00:44:58.449Z,21.10
2023-05-11T00:47:26.855Z,21.10
2023-05-11T00:49:55.901Z,21.00
2023-05-11T00:52:23.947Z,21.00
2023-05-11T00:54:52.266Z,21.00
2023-05-11T00:57:21.276Z,21.00
2023-05-11T00:59:50.411Z,21.00
2023-05-11T01:02:19.777Z,21.00
2023-05-11T01:04:47.727Z,21.00
2023-05-11T01:07:24.101Z,20.90
2023-05-11T01:10:03.940Z,20.90
2023-05-11T01:12:48.922Z,20.90
2023-05-11T01:15:28.483Z,20.90
2023-05-11T01:18:12.663Z,20.90
2023-05-11T01:20:44.981Z,20.90
2023-05-11T01:23:45.481Z,20.80
2023-05-11T01:26:39.868Z,20.80
2023-05-11T01:29:48.949Z,20.80
2023-05-11T01:32:23.146Z,20.80
2023-05-11T01:35:01.201Z,20.70
2023-05-11T01:37:32.729Z,20.80
2023-05-11T01:40:06.440Z,20.70
2023-05-11T01:42:49.644Z,20.70
2023-05-11T01:45:19.828Z,20.80
2023-05-11T01:47:51.908Z,20.70
2023-05-11T01:50:25.103Z,20.70
2023-05-11T01:52:55.264Z,20.70
2023-05-11T01:55:26.852Z,20.70
2023-05-11T01:57:57.261Z,20.70
2023-05-11T02:00:26.111Z,20.70
2023-05-11T02:02:57.524Z,20.70
2023-05-11T02:05:26.466Z,20.70
2023-05-11T02:07:57.205Z,20.70
2023-05-11T02:10:28.718Z,20.70
2023-05-11T02:12:57.472Z,20.70
2023-05-11T02:15:27.945Z,20.70
2023-05-11T02:17:58.900Z,20.70
2023-05-11T02:20:28.049Z,20.70
2023-05-11T02:22:57.987Z,20.70
2023-05-11T02:25:26.730Z,20.60
2023-05-11T02:27:55.083Z,20.60
2023-05-11T02:30:24.624Z,20.60
2023-05-11T02:32:57.635Z,20.60
2023-05-11T02:35:30.726Z,20.60
2023-05-11T02:38:03.871Z,20.60
2023-05-11T02:40:43.032Z,20.60
2023-05-11T02:43:15.480Z,20.60
2023-05-11T02:45:54.947Z,20.50
2023-05-11T02:48:31.329Z,20.50
2023-05-11T02:51:04.701Z,20.50
2023-05-11T02:53:41.138Z,20.50
2023-05-11T02:56:10.430Z,20.50
2023-05-11T02:58:39.135Z,20.50
2023-05-11T03:01:18.833Z,20.50
2023-05-11T03:03:48.583Z,20.50
2023-05-11T03:06:16.707Z,20.50
2023-05-11T03:08:45.190Z,20.50
2023-05-11T03:11:16.023Z,20.50
2023-05-11T03:13:47.309Z,20.50
2023-05-11T03:16:20.394Z,20.50
2023-05-11T03:18:52.049Z,20.50
2023-05-11T03:21:21.683Z,20.50
2023-05-11T03:23:50.754Z,20.50
2023-05-11T03:26:21.313Z,20.40
2023-05-11T03:28:51.952Z,20.40
2023-05-11T03:31:20.137Z,20.40
2023-05-11T03:33:48.220Z,20.40
2023-05-11T03:36:18.813Z,20.40
2023-05-11T03:38:49.654Z,20.40
2023-05-11T03:41:21.635Z,20.40
2023-05-11T03:43:55.391Z,20.40
2023-05-11T03:46:25.543Z,20.40
2023-05-11T03:48:54.765Z,20.40
2023-05-11T03:51:27.551Z,20.40
2023-05-11T03:53:55.567Z,20.40
2023-05-11T03:56:23.606Z,20.40
2023-05-11T03:58:54.540Z,20.40
2023-05-11T04:01:23.758Z,20.40
2023-05-11T04:03:54.512Z,20.40
2023-05-11T04:06:24.132Z,20.50
2023-05-11T04:09:01.437Z,20.40
2023-05-11T04:11:30.390Z,20.50
2023-05-11T04:13:58.279Z,20.50
2023-05-11T04:16:27.176Z,20.50
2023-05-11T04:18:56.036Z,20.40
2023-05-11T04:21:24.091Z,20.40
2023-05-11T04:23:52.016Z,20.40
2023-05-11T04:26:22.427Z,20.40
2023-05-11T04:28:50.481Z,20.40
2023-05-11T04:31:18.467Z,20.40
2023-05-11T04:33:46.604Z,20.40
2023-05-11T04:36:15.374Z,20.40
2023-05-11T04:38:44.049Z,20.40
2023-05-11T04:41:13.905Z,20.40
2023-05-11T04:43:43.658Z,20.40
2023-05-11T04:46:11.712Z,20.40
2023-05-11T04:48:40.074Z,20.40
2023-05-11T04:51:08.327Z,20.40
2023-05-11T04:53:42.358Z,20.40
2023-05-11T04:56:10.747Z,20.40
2023-05-11T04:58:38.735Z,20.40
2023-05-11T05:01:08.342Z,20.40
2023-05-11T05:03:36.354Z,20.40
2023-05-11T05:06:04.485Z,20.40
2023-05-11T05:08:32.489Z,20.40
2023-05-11T05:11:00.715Z,20.40
2023-05-11T05:13:28.732Z,20.40
2023-05-11T05:15:56.769Z,20.50
2023-05-11T05:18:26.179Z,20.50
2023-05-11T05:20:54.269Z,20.50
2023-05-11T05:23:22.174Z,20.50
2023-05-11T05:25:50.054Z,20.50
2023-05-11T05:28:18.088Z,20.50
2023-05-11T05:30:47.317Z,20.50
2023-05-11T05:33:16.188Z,20.50
2023-05-11T05:35:46.836Z,20.50
2023-05-11T05:38:15.840Z,20.50
2023-05-11T05:40:43.768Z,20.50
2023-05-11T05:43:12.176Z,20.50
2023-05-11T05:45:40.207Z,20.50
2023-05-11T05:48:09.703Z,20.50
2023-05-11T05:50:38.365Z,20.50
2023-05-11T05:53:07.864Z,20.60
2023-05-11T05:55:36.390Z,20.60
2023-05-11T05:58:06.138Z,20.60
2023-05-11T06:00:34.110Z,20.60
2023-05-11T06:03:07.185Z,20.60
2023-05-11T06:05:35.254Z,20.60
2023-05-11T06:08:10.709Z,20.60
2023-05-11T06:10:41.078Z,20.60
2023-05-11T06:13:10.688Z,20.70
2023-05-11T06:15:43.180Z,20.70
2023-05-11T06:18:23.305Z,20.70
2023-05-11T06:20:51.563Z,20.70
2023-05-11T06:23:19.889Z,20.70
2023-05-11T06:25:50.071Z,20.70
2023-05-11T06:28:18.277Z,20.80
2023-05-11T06:30:46.798Z,20.80
2023-05-11T06:33:14.691Z,20.80
2023-05-11T06:35:43.245Z,20.80
2023-05-11T06:38:13.843Z,20.90
2023-05-11T06:40:42.102Z,20.90
2023-05-11T06:43:11.410Z,20.90
2023-05-11T06:45:47.850Z,20.90
2023-05-11T06:48:16.386Z,20.90
2023-05-11T06:50:44.411Z,21.00
2023-05-11T06:53:14.191Z,21.00
2023-05-11T06:55:42.194Z,21.00
2023-05-11T06:58:11.498Z,21.00
2023-05-11T07:00:39.554Z,21.10
2023-05-11T07:03:07.965Z,21.10
2023-05-11T07:05:37.768Z,21.10
2023-05-11T07:08:06.362Z,21.20
2023-05-11T07:10:34.395Z,21.20
2023-05-11T07:13:02.381Z,21.20
2023-05-11T07:15:31.868Z,21.20
2023-05-11T07:18:01.316Z,21.20
2023-05-11T07:20:29.280Z,21.30
2023-05-11T07:23:00.224Z,21.30
2023-05-11T07:25:28.518Z,21.30
2023-05-11T07:27:56.694Z,21.40
2023-05-11T07:30:25.629Z,21.40
2023-05-11T07:32:55.221Z,21.40
2023-05-11T07:35:24.323Z,21.50
2023-05-11T07:37:52.464Z,21.50
2023-05-11T07:40:20.781Z,21.60
2023-05-11T07:42:48.877Z,21.60
2023-05-11T07:45:16.768Z,21.60
2023-05-11T07:47:45.204Z,21.70
2023-05-11T07:50:14.533Z,21.70
2023-05-11T07:52:42.649Z,21.80
2023-05-11T07:55:10.966Z,21.80
2023-05-11T07:57:38.854Z,21.90
2023-05-11T08:00:10.356Z,21.90
2023-05-11T08:02:41.994Z,22.00
2023-05-11T08:05:10.743Z,22.10
2023-05-11T08:07:41.632Z,22.10
2023-05-11T08:10:10.777Z,22.20
2023-05-11T08:12:39.604Z,22.20
2023-05-11T08:15:08.863Z,22.30
2023-05-11T08:17:37.394Z,22.30
2023-05-11T08:20:06.791Z,22.40
2023-05-11T08:22:35.014Z,22.40
2023-05-11T08:25:05.553Z,22.50
2023-05-11T08:27:33.471Z,22.60
2023-05-11T08:30:01.386Z,22.60
2023-05-11T08:32:29.444Z,22.70
2023-05-11T08:34:58.120Z,22.70
2023-05-11T08:37:26.179Z,22.80
2023-05-11T08:39:54.081Z,22.80
2023-05-11T08:42:26.163Z,22.80
2023-05-11T08:44:58.223Z,22.80
2023-05-11T08:47:27.287Z,22.90
2023-05-11T08:49:55.688Z,23.00
2023-05-11T08:52:23.629Z,23.00
2023-05-11T08:54:52.738Z,23.10
2023-05-11T08:57:21.324Z,23.10
2023-05-11T08:59:52.414Z,23.10
2023-05-11T09:02:21.500Z,23.10
2023-05-11T09:04:52.192Z,23.10
2023-05-11T09:07:20.699Z,23.20
2023-05-11T09:09:49.234Z,23.20
2023-05-11T09:12:17.767Z,23.20
2023-05-11T09:14:47.018Z,23.20
2023-05-11T09:17:16.271Z,23.30
2023-05-11T09:20:01.992Z,23.20
2023-05-11T09:22:32.065Z,23.30
2023-05-11T09:25:03.183Z,23.30
2023-05-11T09:27:32.203Z,23.30
2023-05-11T09:30:13.343Z,23.30
2023-05-11T09:32:54.658Z,23.30
2023-05-11T09:35:25.260Z,23.40
2023-05-11T09:38:05.423Z,23.30
2023-05-11T09:40:35.217Z,23.40
2023-05-11T09:43:04.006Z,23.40
2023-05-11T09:45:43.273Z,23.40
2023-05-11T09:48:32.753Z,23.40
2023-05-11T09:51:04.610Z,23.40
2023-05-11T09:53:38.680Z,23.50
2023-05-11T09:56:07.930Z,23.50
2023-05-11T09:58:52.337Z,23.40
2023-05-11T10:01:32.224Z,23.50
2023-05-11T10:04:09.496Z,23.50
2023-05-11T10:06:52.891Z,23.60
2023-05-11T10:09:26.008Z,23.60
2023-05-11T10:11:56.258Z,23.60
2023-05-11T10:14:26.038Z,23.60
2023-05-11T10:16:55.530Z,23.70
2023-05-11T10:19:24.936Z,23.70
2023-05-11T10:21:53.871Z,23.70
2023-05-11T10:24:22.371Z,23.70
2023-05-11T10:26:51.784Z,23.70
2023-05-11T10:29:20.582Z,23.80
2023-05-11T10:31:51.535Z,23.80
2023-05-11T10:34:23.201Z,23.80
2023-05-11T10:36:53.886Z,23.80
2023-05-11T10:39:22.760Z,23.80
2023-05-11T10:42:06.888Z,23.80
2023-05-11T10:45:02.359Z,23.70
2023-05-11T10:48:38.033Z,23.80
2023-05-11T10:51:45.361Z,23.70
2023-05-11T10:54:45.573Z,23.70
2023-05-11T10:57:30.186Z,23.70
2023-05-11T11:00:58.478Z,23.70
2023-05-11T11:03:26.582Z,23.80
2023-05-11T11:05:55.112Z,23.80
2023-05-11T11:08:23.176Z,23.80
2023-05-11T11:10:52.442Z,23.90
2023-05-11T11:13:23.250Z,23.90
2023-05-11T11:16:10.650Z,23.80
2023-05-11T11:18:39.879Z,23.90
2023-05-11T11:21:08.881Z,23.90
2023-05-11T11:23:43.981Z,23.90
2023-05-11T11:26:15.839Z,23.90
2023-05-11T11:29:09.820Z,23.90
2023-05-11T11:31:39.484Z,23.90
2023-05-11T11:34:38.655Z,23.90
2023-05-11T11:37:09.615Z,23.90
2023-05-11T11:39:58.349Z,23.90
2023-05-11T11:42:41.695Z,23.90
2023-05-11T11:45:30.857Z,23.90
2023-05-11T11:48:13.195Z,23.90
2023-05-11T11:50:43.743Z,24.00
2023-05-11T11:53:47.799Z,23.90
2023-05-11T11:56:41.486Z,23.90
2023-05-11T11:59:14.969Z,24.00
2023-05-11T12:01:45.869Z,24.00
2023-05-11T12:04:46.000Z,24.00
2023-05-11T12:07:16.107Z,24.00
2023-05-11T12:09:47.246Z,24.00
2023-05-11T12:12:19.727Z,24.10
2023-05-11T12:14:49.884Z,24.10
2023-05-11T12:17:28.108Z,24.10
2023-05-11T12:20:12.867Z,24.10
2023-05-11T12:22:41.482Z,24.10
2023-05-11T12:25:11.661Z,24.20
2023-05-11T12:27:51.740Z,24.10
2023-05-11T12:30:26.412Z,24.10
2023-05-11T12:32:57.666Z,24.20
2023-05-11T12:35:28.364Z,24.10
2023-05-11T12:37:57.741Z,24.20
2023-05-11T12:40:25.774Z,24.20
2023-05-11T12:42:56.349Z,24.20
2023-05-11T12:45:27.424Z,24.20
2023-05-11T12:47:57.225Z,24.20
2023-05-11T12:50:25.320Z,24.20
2023-05-11T12:52:53.311Z,24.20
2023-05-11T12:55:31.409Z,24.20
2023-05-11T12:58:09.898Z,24.20
2023-05-11T13:00:50.757Z,24.20
2023-05-11T13:03:23.816Z,24.20
2023-05-11T13:05:54.189Z,24.20
2023-05-11T13:08:22.347Z,24.20
2023-05-11T13:10:50.251Z,24.20
2023-05-11T13:13:28.962Z,24.20
2023-05-11T13:15:58.362Z,24.20
2023-05-11T13:18:26.325Z,24.20
2023-05-11T13:21:07.535Z,24.10
2023-05-11T13:23:36.854Z,24.20
2023-05-11T13:26:04.995Z,24.20
2023-05-11T13:28:35.373Z,24.20
2023-05-11T13:31:04.659Z,24.20
2023-05-11T13:33:32.589Z,24.20
2023-05-11T13:36:00.503Z,24.20
2023-05-11T13:38:28.566Z,24.20
2023-05-11T13:40:56.514Z,24.20
2023-05-11T13:43:24.663Z,24.20
2023-05-11T13:45:52.724Z,24.20
2023-05-11T13:48:22.085Z,24.20
2023-05-11T13:50:49.995Z,24.20
2023-05-11T13:53:18.504Z,24.20
2023-05-11T13:55:46.581Z,24.20
2023-05-11T13:58:14.480Z,24.20
2023-05-11T14:00:48.109Z,24.20
2023-05-11T14:03:23.483Z,24.10
2023-05-11T14:05:52.028Z,24.10
2023-05-11T14:08:20.042Z,24.10
2023-05-11T14:10:47.945Z,24.10
2023-05-11T14:13:15.869Z,24.10
2023-05-11T14:15:44.018Z,24.10
2023-05-11T14:18:12.651Z,24.10
2023-05-11T14:20:42.438Z,24.10
2023-05-11T14:23:10.466Z,24.10
2023-05-11T14:25:38.369Z,24.10
2023-05-11T14:28:06.829Z,24.10
2023-05-11T14:30:34.763Z,24.10
2023-05-11T14:33:02.733Z,24.10
2023-05-11T14:35:30.728Z,24.10
2023-05-11T14:37:59.963Z,24.10
2023-05-11T14:40:27.860Z,24.10
2023-05-11T14:42:55.892Z,24.10
2023-05-11T14:45:23.745Z,24.10
2023-05-11T14:47:51.988Z,24.10
2023-05-11T14:50:20.109Z,24.10
2023-05-11T14:52:48.046Z,24.10
2023-05-11T14:55:17.635Z,24.10
2023-05-11T14:57:45.815Z,24.10
2023-05-11T15:00:15.287Z,24.10
2023-05-11T15:02:43.182Z,24.10
2023-05-11T15:05:11.318Z,24.10
2023-05-11T15:07:39.321Z,24.10
2023-05-11T15:10:08.695Z,24.10
2023-05-11T15:12:37.980Z,24.10
2023-05-11T15:15:07.285Z,24.20
2023-05-11T15:17:35.211Z,24.20
2023-05-11T15:20:03.424Z,24.20
2023-05-11T15:22:31.400Z,24.20
2023-05-11T15:24:59.269Z,24.20
2023-05-11T15:27:27.389Z,24.20
2023-05-11T15:29:56.677Z,24.20
2023-05-11T15:32:24.576Z,24.20
2023-05-11T15:34:59.129Z,24.20
2023-05-11T15:37:28.537Z,24.20
2023-05-11T15:39:56.507Z,24.20
2023-05-11T15:42:24.425Z,24.20
2023-05-11T15:44:52.320Z,24.20
2023-05-11T15:47:21.708Z,24.20
2023-05-11T15:49:49.638Z,24.20
2023-05-11T15:52:17.571Z,24.20
2023-05-11T15:54:45.511Z,24.20
2023-05-11T15:57:13.414Z,24.20
2023-05-11T15:59:41.402Z,24.20
2023-05-11T16:02:09.460Z,24.20
2023-05-11T16:04:38.678Z,24.20
2023-05-11T16:07:07.083Z,24.20
2023-05-11T16:09:34.962Z,24.20
2023-05-11T16:12:02.833Z,24.20
2023-05-11T16:14:30.695Z,24.10
2023-05-11T16:16:59.546Z,24.20
2023-05-11T16:19:27.554Z,24.20
2023-05-11T16:21:56.888Z,24.20
2023-05-11T16:24:24.778Z,24.20
2023-05-11T16:26:52.673Z,24.20
2023-05-11T16:29:20.587Z,24.20
2023-05-11T16:31:48.498Z,24.20
2023-05-11T16:34:16.426Z,24.20
2023-05-11T16:36:44.932Z,24.20
2023-05-11T16:39:14.240Z,24.20
2023-05-11T16:41:42.133Z,24.20
2023-05-11T16:44:10.166Z,24.20
2023-05-11T16:46:38.107Z,24.20
2023-05-11T16:49:06.072Z,24.20
2023-05-11T16:51:34.217Z,24.20
2023-05-11T16:54:02.122Z,24.20
2023-05-11T16:56:31.371Z,24.20
2023-05-11T16:58:59.211Z,24.20
2023-05-11T17:01:27.153Z,24.20
2023-05-11T17:03:55.302Z,24.20
2023-05-11T17:06:24.730Z,24.20
2023-05-11T17:08:52.944Z,24.20
2023-05-11T17:11:21.496Z,24.20
2023-05-11T17:13:51.415Z,24.10
2023-05-11T17:16:19.525Z,24.10
2023-05-11T17:18:47.885Z,24.10
2023-05-11T17:21:16.840Z,24.10
2023-05-11T17:23:45.082Z,24.10
2023-05-11T17:26:14.336Z,24.10
2023-05-11T17:28:42.509Z,24.10
2023-05-11T17:31:14.132Z,24.10
2023-05-11T17:33:43.328Z,24.10
2023-05-11T17:36:12.773Z,24.10
2023-05-11T17:38:40.706Z,24.10
2023-05-11T17:41:09.049Z,24.10
2023-05-11T17:43:37.941Z,24.10
2023-05-11T17:46:06.133Z,24.10
2023-05-11T17:48:35.416Z,24.10
2023-05-11T17:51:03.327Z,24.10
2023-05-11T17:53:31.983Z,24.00
2023-05-11T17:56:00.106Z,24.00
2023-05-11T17:58:27.987Z,24.00
2023-05-11T18:00:55.894Z,24.00
2023-05-11T18:03:24.019Z,24.00
2023-05-11T18:05:53.381Z,24.00
2023-05-11T18:08:21.338Z,24.00
2023-05-11T18:10:49.238Z,24.00
2023-05-11T18:13:17.781Z,24.00
2023-05-11T18:15:46.067Z,24.00
2023-05-11T18:18:14.438Z,24.00
2023-05-11T18:20:45.302Z,23.90
2023-05-11T18:23:14.902Z,23.90
2023-05-11T18:25:43.455Z,23.90
2023-05-11T18:28:11.463Z,23.90
2023-05-11T18:30:40.237Z,23.90
2023-05-11T18:33:08.258Z,23.80
2023-05-11T18:35:38.893Z,23.90
2023-05-11T18:38:07.280Z,23.90
2023-05-11T18:40:36.714Z,23.80
2023-05-11T18:43:04.923Z,23.80
2023-05-11T18:45:34.762Z,23.80
2023-05-11T18:48:03.627Z,23.80
2023-05-11T18:50:31.616Z,23.80
2023-05-11T18:52:59.542Z,23.80
2023-05-11T18:55:30.820Z,23.80
2023-05-11T18:58:01.520Z,23.80
2023-05-11T19:00:29.462Z,23.70
2023-05-11T19:02:57.393Z,23.70
2023-05-11T19:05:25.395Z,23.70
2023-05-11T19:07:53.319Z,23.70
2023-05-11T19:10:23.885Z,23.70
2023-05-11T19:12:52.173Z,23.70
2023-05-11T19:15:21.403Z,23.70
2023-05-11T19:17:49.372Z,23.70
2023-05-11T19:20:17.813Z,23.60
2023-05-11T19:22:45.830Z,23.60
2023-05-11T19:25:13.907Z,23.60
2023-05-11T19:27:41.872Z,23.60
2023-05-11T19:30:10.857Z,23.60
2023-05-11T19:32:42.276Z,23.60
2023-05-11T19:35:12.706Z,23.60
2023-05-11T19:37:40.634Z,23.50
2023-05-11T19:40:37.247Z,23.50
2023-05-11T19:42:58.729Z,23.50
2023-05-11T19:45:26.585Z,23.50
2023-05-11T19:47:55.910Z,23.50
2023-05-11T19:50:24.776Z,23.50
2023-05-11T19:52:53.449Z,23.50
2023-05-11T19:55:21.611Z,23.50
2023-05-11T19:57:49.661Z,23.50
2023-05-11T20:00:19.284Z,23.40
2023-05-11T20:02:47.400Z,23.40
2023-05-11T20:05:16.785Z,23.40
2023-05-11T20:07:44.866Z,23.40
2023-05-11T20:10:13.086Z,23.40
2023-05-11T20:12:41.105Z,23.40
2023-05-11T20:15:10.885Z,23.30
2023-05-11T20:17:39.616Z,23.30
2023-05-11T20:20:09.578Z,23.30
2023-05-11T20:22:39.488Z,23.30
2023-05-11T20:25:16.970Z,23.30
2023-05-11T20:27:46.218Z,23.30
2023-05-11T20:30:15.404Z,23.20
2023-05-11T20:34:06.939Z,23.20
2023-05-11T20:35:32.835Z,23.20
2023-05-11T20:38:02.346Z,23.20
2023-05-11T20:40:30.325Z,23.20
2023-05-11T20:42:58.221Z,23.20
2023-05-11T20:45:26.259Z,23.10
2023-05-11T20:47:54.223Z,23.10
2023-05-11T20:50:22.706Z,23.10
2023-05-11T20:52:50.542Z,23.10
2023-05-11T20:55:20.392Z,23.10
2023-05-11T20:57:48.481Z,23.10
2023-05-11T21:00:17.672Z,23.00
2023-05-11T21:02:46.852Z,23.00
2023-05-11T21:05:15.048Z,23.00
2023-05-11T21:07:42.918Z,23.00
2023-05-11T21:10:13.125Z,23.00
2023-05-11T21:12:42.350Z,22.90
2023-05-11T21:15:11.196Z,22.90
2023-05-11T21:17:39.136Z,22.90
2023-05-11T21:20:08.770Z,22.90
2023-05-11T21:22:38.212Z,22.90
2023-05-11T21:25:07.428Z,22.80
2023-05-11T21:27:36.516Z,22.80
2023-05-11T21:30:07.819Z,22.80
2023-05-11T21:32:35.725Z,22.80
2023-05-11T21:35:03.981Z,22.80
2023-05-11T21:37:33.637Z,22.70
2023-05-11T21:40:01.890Z,22.70
2023-05-11T21:42:34.245Z,22.70
2023-05-11T21:45:02.520Z,22.70
2023-05-11T21:47:31.744Z,22.60
2023-05-11T21:50:00.063Z,22.60
2023-05-11T21:52:28.105Z,22.60
2023-05-11T21:54:56.084Z,22.60
2023-05-11T21:57:24.031Z,22.60
2023-05-11T21:59:51.921Z,22.60
2023-05-11T22:02:19.856Z,22.50
2023-05-11T22:04:49.632Z,22.50
2023-05-11T22:07:17.604Z,22.50
2023-05-11T22:09:45.488Z,22.50
2023-05-11T22:12:13.588Z,22.40
2023-05-11T22:14:41.577Z,22.40
2023-05-11T22:17:10.803Z,22.40
2023-05-11T22:19:40.076Z,22.40
2023-05-11T22:22:09.284Z,22.30
2023-05-11T22:24:37.113Z,22.30
2023-05-11T22:27:05.202Z,22.30
2023-05-11T22:29:33.068Z,22.30
2023-05-11T22:32:01.177Z,22.30
2023-05-11T22:34:29.075Z,22.20
2023-05-11T22:36:56.992Z,22.20
2023-05-11T22:39:26.140Z,22.20
2023-05-11T22:41:54.229Z,22.20
2023-05-11T22:44:22.056Z,22.20
2023-05-11T22:46:50.657Z,22.10
2023-05-11T22:49:18.573Z,22.10
2023-05-11T22:51:46.417Z,22.10
2023-05-11T22:54:15.915Z,22.00
2023-05-11T22:56:45.248Z,22.00
2023-05-11T22:59:13.618Z,22.00
2023-05-11T23:01:41.540Z,22.00
2023-05-11T23:04:09.689Z,22.00
2023-05-11T23:06:37.636Z,21.90
2023-05-11T23:09:06.033Z,21.90
2023-05-11T23:11:33.885Z,21.90
2023-05-11T23:14:03.990Z,21.90
2023-05-11T23:16:31.841Z,21.90
2023-05-11T23:19:01.692Z,21.80
2023-05-11T23:21:29.696Z,21.80
2023-05-11T23:23:57.564Z,21.80
2023-05-11T23:26:25.411Z,21.80
2023-05-11T23:28:53.358Z,21.80
2023-05-11T23:31:22.607Z,21.80
2023-05-11T23:33:50.500Z,21.70
2023-05-11T23:36:18.400Z,21.70
2023-05-11T23:38:46.358Z,21.70
2023-05-11T23:41:14.240Z,21.70
2023-05-11T23:43:42.119Z,21.70
2023-05-11T23:46:10.213Z,21.60
2023-05-11T23:48:40.126Z,21.60
2023-05-11T23:51:08.160Z,21.60
2023-05-11T23:53:36.033Z,21.60
2023-05-11T23:56:04.119Z,21.60
2023-05-11T23:58:32.318Z,21.60
